sensor_id;sensor_type;location;lat;lon;timestamp;P1;durP1;ratioP1;P2;durP2;ratioP2
77148;SDS011;66122;47.130;16.844;2023-05-07T00:01:50;7.47;;;5.40;;
77148;SDS011;66122;47.130;16.844;2023-05-07T00:11:52;12.30;;;5.83;;
77148;SDS011;66122;47.130;16.844;2023-05-07T00:21:55;6.63;;;4.15;;
77148;SDS011;66122;47.130;16.844;2023-05-07T00:31:58;9.13;;;5.73;;
77148;SDS011;66122;47.130;16.844;2023-05-07T00:42:01;8.50;;;5.67;;
77148;SDS011;66122;47.130;16.844;2023-05-07T00:52:09;8.77;;;5.93;;
77148;SDS011;66122;47.130;16.844;2023-05-07T01:02:13;7.47;;;4.47;;
77148;SDS011;66122;47.130;16.844;2023-05-07T01:12:16;7.73;;;5.30;;
77148;SDS011;66122;47.130;16.844;2023-05-07T01:22:26;8.13;;;5.00;;
77148;SDS011;66122;47.130;16.844;2023-05-07T01:32:35;7.63;;;5.18;;
77148;SDS011;66122;47.130;16.844;2023-05-07T01:42:58;7.53;;;5.20;;
77148;SDS011;66122;47.130;16.844;2023-05-07T01:53:01;10.40;;;6.27;;
77148;SDS011;66122;47.130;16.844;2023-05-07T02:03:04;8.70;;;5.30;;
77148;SDS011;66122;47.130;16.844;2023-05-07T02:13:15;10.57;;;4.90;;
77148;SDS011;66122;47.130;16.844;2023-05-07T02:23:18;59.30;;;5.50;;
77148;SDS011;66122;47.130;16.844;2023-05-07T02:33:21;11.03;;;4.50;;
77148;SDS011;66122;47.130;16.844;2023-05-07T02:43:24;8.23;;;4.47;;
77148;SDS011;66122;47.130;16.844;2023-05-07T02:53:27;7.43;;;5.00;;
77148;SDS011;66122;47.130;16.844;2023-05-07T03:03:31;7.83;;;4.83;;
77148;SDS011;66122;47.130;16.844;2023-05-07T03:13:34;7.65;;;4.68;;
77148;SDS011;66122;47.130;16.844;2023-05-07T03:23:37;7.63;;;5.30;;
77148;SDS011;66122;47.130;16.844;2023-05-07T03:33:49;10.37;;;5.37;;
77148;SDS011;66122;47.130;16.844;2023-05-07T03:43:53;8.23;;;5.57;;
77148;SDS011;66122;47.130;16.844;2023-05-07T03:53:55;13.70;;;5.40;;
77148;SDS011;66122;47.130;16.844;2023-05-07T04:04:01;8.10;;;5.17;;
77148;SDS011;66122;47.130;16.844;2023-05-07T04:14:04;7.40;;;5.03;;
77148;SDS011;66122;47.130;16.844;2023-05-07T04:24:06;8.93;;;6.00;;
77148;SDS011;66122;47.130;16.844;2023-05-07T04:34:10;10.40;;;6.60;;
77148;SDS011;66122;47.130;16.844;2023-05-07T04:44:13;9.77;;;6.70;;
77148;SDS011;66122;47.130;16.844;2023-05-07T04:54:17;9.23;;;6.85;;
77148;SDS011;66122;47.130;16.844;2023-05-07T05:04:20;9.87;;;6.93;;
77148;SDS011;66122;47.130;16.844;2023-05-07T05:14:23;9.90;;;6.97;;
77148;SDS011;66122;47.130;16.844;2023-05-07T05:24:27;10.32;;;7.43;;
77148;SDS011;66122;47.130;16.844;2023-05-07T05:34:29;12.77;;;8.33;;
77148;SDS011;66122;47.130;16.844;2023-05-07T05:44:33;11.57;;;7.70;;
77148;SDS011;66122;47.130;16.844;2023-05-07T05:54:36;11.87;;;7.60;;
77148;SDS011;66122;47.130;16.844;2023-05-07T06:04:39;11.10;;;6.60;;
77148;SDS011;66122;47.130;16.844;2023-05-07T06:14:42;8.20;;;6.33;;
77148;SDS011;66122;47.130;16.844;2023-05-07T06:24:46;10.33;;;6.60;;
77148;SDS011;66122;47.130;16.844;2023-05-07T06:34:49;11.05;;;6.25;;
77148;SDS011;66122;47.130;16.844;2023-05-07T06:44:52;7.77;;;5.60;;
77148;SDS011;66122;47.130;16.844;2023-05-07T06:54:54;6.27;;;5.00;;
77148;SDS011;66122;47.130;16.844;2023-05-07T07:04:59;7.93;;;5.22;;
77148;SDS011;66122;47.130;16.844;2023-05-07T07:15:02;7.93;;;5.30;;
77148;SDS011;66122;47.130;16.844;2023-05-07T07:25:05;8.20;;;5.83;;
77148;SDS011;66122;47.130;16.844;2023-05-07T07:35:08;9.17;;;6.07;;
77148;SDS011;66122;47.130;16.844;2023-05-07T07:45:13;8.48;;;5.68;;
77148;SDS011;66122;47.130;16.844;2023-05-07T07:55:20;8.07;;;6.50;;
77148;SDS011;66122;47.130;16.844;2023-05-07T08:05:27;9.57;;;5.77;;
77148;SDS011;66122;47.130;16.844;2023-05-07T08:15:30;8.55;;;5.70;;
77148;SDS011;66122;47.130;16.844;2023-05-07T08:25:33;6.83;;;5.23;;
77148;SDS011;66122;47.130;16.844;2023-05-07T08:35:37;7.63;;;5.60;;
77148;SDS011;66122;47.130;16.844;2023-05-07T08:45:42;6.60;;;5.15;;
77148;SDS011;66122;47.130;16.844;2023-05-07T08:55:49;5.90;;;4.53;;
77148;SDS011;66122;47.130;16.844;2023-05-07T09:05:53;6.30;;;4.30;;
77148;SDS011;66122;47.130;16.844;2023-05-07T09:15:57;5.00;;;4.50;;
77148;SDS011;66122;47.130;16.844;2023-05-07T09:26:00;5.83;;;4.37;;
77148;SDS011;66122;47.130;16.844;2023-05-07T09:36:08;6.40;;;4.90;;
77148;SDS011;66122;47.130;16.844;2023-05-07T09:46:15;5.72;;;4.20;;
77148;SDS011;66122;47.130;16.844;2023-05-07T09:56:25;7.30;;;3.87;;
77148;SDS011;66122;47.130;16.844;2023-05-07T10:06:28;6.07;;;3.90;;
77148;SDS011;66122;47.130;16.844;2023-05-07T10:16:34;5.18;;;4.68;;
77148;SDS011;66122;47.130;16.844;2023-05-07T10:26:43;6.07;;;5.43;;
77148;SDS011;66122;47.130;16.844;2023-05-07T10:36:49;6.50;;;4.60;;
77148;SDS011;66122;47.130;16.844;2023-05-07T10:47:05;6.15;;;4.80;;
77148;SDS011;66122;47.130;16.844;2023-05-07T11:07:54;7.13;;;5.40;;
77148;SDS011;66122;47.130;16.844;2023-05-07T11:18:03;6.33;;;5.27;;
77148;SDS011;66122;47.130;16.844;2023-05-07T11:28:11;7.53;;;5.17;;
77148;SDS011;66122;47.130;16.844;2023-05-07T11:38:23;6.13;;;4.63;;
77148;SDS011;66122;47.130;16.844;2023-05-07T11:48:27;6.23;;;5.10;;
77148;SDS011;66122;47.130;16.844;2023-05-07T11:58:30;6.07;;;5.40;;
77148;SDS011;66122;47.130;16.844;2023-05-07T12:08:32;5.95;;;5.03;;
77148;SDS011;66122;47.130;16.844;2023-05-07T12:18:38;6.33;;;3.80;;
77148;SDS011;66122;47.130;16.844;2023-05-07T12:28:41;8.33;;;5.53;;
77148;SDS011;66122;47.130;16.844;2023-05-07T12:38:44;7.93;;;4.97;;
77148;SDS011;66122;47.130;16.844;2023-05-07T12:48:47;6.43;;;5.33;;
77148;SDS011;66122;47.130;16.844;2023-05-07T12:58:50;6.90;;;5.65;;
77148;SDS011;66122;47.130;16.844;2023-05-07T13:08:53;5.33;;;4.70;;
77148;SDS011;66122;47.130;16.844;2023-05-07T13:18:55;6.53;;;5.43;;
77148;SDS011;66122;47.130;16.844;2023-05-07T13:28:58;6.07;;;5.33;;
77148;SDS011;66122;47.130;16.844;2023-05-07T13:39:00;6.03;;;4.73;;
77148;SDS011;66122;47.130;16.844;2023-05-07T13:49:03;6.90;;;5.05;;
77148;SDS011;66122;47.130;16.844;2023-05-07T13:59:06;6.10;;;4.87;;
77148;SDS011;66122;47.130;16.844;2023-05-07T14:09:08;4.57;;;4.17;;
77148;SDS011;66122;47.130;16.844;2023-05-07T14:19:14;5.70;;;4.30;;
77148;SDS011;66122;47.130;16.844;2023-05-07T14:29:16;6.33;;;4.73;;
77148;SDS011;66122;47.130;16.844;2023-05-07T14:39:25;5.32;;;4.38;;
77148;SDS011;66122;47.130;16.844;2023-05-07T14:49:28;4.97;;;4.20;;
77148;SDS011;66122;47.130;16.844;2023-05-07T14:59:31;5.20;;;4.23;;
77148;SDS011;66122;47.130;16.844;2023-05-07T15:09:34;5.15;;;3.80;;
77148;SDS011;66122;47.130;16.844;2023-05-07T15:19:37;5.33;;;4.07;;
77148;SDS011;66122;47.130;16.844;2023-05-07T15:29:39;5.10;;;4.03;;
77148;SDS011;66122;47.130;16.844;2023-05-07T15:39:42;6.50;;;4.40;;
77148;SDS011;66122;47.130;16.844;2023-05-07T15:49:45;6.07;;;4.27;;
77148;SDS011;66122;47.130;16.844;2023-05-07T15:59:47;5.78;;;4.90;;
77148;SDS011;66122;47.130;16.844;2023-05-07T16:09:50;5.77;;;5.00;;
77148;SDS011;66122;47.130;16.844;2023-05-07T16:19:52;6.93;;;5.50;;
77148;SDS011;66122;47.130;16.844;2023-05-07T16:29:55;7.57;;;4.90;;
77148;SDS011;66122;47.130;16.844;2023-05-07T16:40:00;6.67;;;4.50;;
77148;SDS011;66122;47.130;16.844;2023-05-07T16:50:05;6.30;;;4.20;;
77148;SDS011;66122;47.130;16.844;2023-05-07T17:00:08;6.93;;;4.67;;
77148;SDS011;66122;47.130;16.844;2023-05-07T17:10:12;7.77;;;5.07;;
77148;SDS011;66122;47.130;16.844;2023-05-07T17:20:15;7.25;;;4.40;;
77148;SDS011;66122;47.130;16.844;2023-05-07T17:30:18;6.70;;;4.13;;
77148;SDS011;66122;47.130;16.844;2023-05-07T17:40:20;5.07;;;3.97;;
77148;SDS011;66122;47.130;16.844;2023-05-07T17:50:23;10.38;;;3.70;;
77148;SDS011;66122;47.130;16.844;2023-05-07T18:00:26;6.00;;;3.53;;
77148;SDS011;66122;47.130;16.844;2023-05-07T18:10:29;4.30;;;3.10;;
77148;SDS011;66122;47.130;16.844;2023-05-07T18:20:32;6.65;;;3.60;;
77148;SDS011;66122;47.130;16.844;2023-05-07T18:30:35;5.00;;;3.10;;
77148;SDS011;66122;47.130;16.844;2023-05-07T18:40:38;7.87;;;3.57;;
77148;SDS011;66122;47.130;16.844;2023-05-07T18:50:45;7.70;;;3.60;;
77148;SDS011;66122;47.130;16.844;2023-05-07T19:00:49;6.87;;;3.70;;
77148;SDS011;66122;47.130;16.844;2023-05-07T19:10:54;4.70;;;3.07;;
77148;SDS011;66122;47.130;16.844;2023-05-07T19:20:57;4.70;;;3.10;;
77148;SDS011;66122;47.130;16.844;2023-05-07T19:31:00;5.57;;;3.33;;
77148;SDS011;66122;47.130;16.844;2023-05-07T19:41:03;3.97;;;2.67;;
77148;SDS011;66122;47.130;16.844;2023-05-07T19:51:05;5.27;;;3.03;;
77148;SDS011;66122;47.130;16.844;2023-05-07T20:01:08;6.78;;;3.20;;
77148;SDS011;66122;47.130;16.844;2023-05-07T20:11:11;5.57;;;3.67;;
77148;SDS011;66122;47.130;16.844;2023-05-07T20:21:15;5.43;;;3.83;;
77148;SDS011;66122;47.130;16.844;2023-05-07T20:31:18;5.18;;;3.58;;
77148;SDS011;66122;47.130;16.844;2023-05-07T20:41:21;5.80;;;4.20;;
77148;SDS011;66122;47.130;16.844;2023-05-07T20:51:26;6.17;;;4.57;;
77148;SDS011;66122;47.130;16.844;2023-05-07T21:01:29;7.17;;;5.00;;
77148;SDS011;66122;47.130;16.844;2023-05-07T21:11:31;6.88;;;4.68;;
77148;SDS011;66122;47.130;16.844;2023-05-07T21:21:34;9.53;;;5.47;;
77148;SDS011;66122;47.130;16.844;2023-05-07T21:31:36;10.40;;;6.63;;
77148;SDS011;66122;47.130;16.844;2023-05-07T21:41:39;12.68;;;7.13;;
77148;SDS011;66122;47.130;16.844;2023-05-07T21:51:42;14.23;;;7.23;;
77148;SDS011;66122;47.130;16.844;2023-05-07T22:01:44;12.47;;;8.10;;
77148;SDS011;66122;47.130;16.844;2023-05-07T22:11:47;13.48;;;7.93;;
77148;SDS011;66122;47.130;16.844;2023-05-07T22:21:49;14.80;;;9.13;;
77148;SDS011;66122;47.130;16.844;2023-05-07T22:31:52;16.70;;;9.40;;
77148;SDS011;66122;47.130;16.844;2023-05-07T22:41:55;17.70;;;9.53;;
77148;SDS011;66122;47.130;16.844;2023-05-07T22:51:57;17.67;;;9.80;;
77148;SDS011;66122;47.130;16.844;2023-05-07T23:02:00;19.50;;;10.47;;
77148;SDS011;66122;47.130;16.844;2023-05-07T23:12:03;19.20;;;9.80;;
77148;SDS011;66122;47.130;16.844;2023-05-07T23:22:06;17.73;;;10.23;;
77148;SDS011;66122;47.130;16.844;2023-05-07T23:32:08;19.73;;;10.17;;
77148;SDS011;66122;47.130;16.844;2023-05-07T23:42:11;16.47;;;9.50;;
77148;SDS011;66122;47.130;16.844;2023-05-07T23:52:14;16.85;;;9.02;;
